sensor_id;sensor_type;location;lat;lon;timestamp;pressure;altitude;pressure_sealevel;temperature;humidity
58245;BME280;44550;43.864;25.986;2023-09-19T00:02:18;101488.03;;;19.20;83.78
58245;BME280;44550;43.864;25.986;2023-09-19T00:06:31;101444.31;;;18.92;84.10
58245;BME280;44550;43.864;25.986;2023-09-19T00:10:42;101472.31;;;19.08;84.25
58245;BME280;44550;43.864;25.986;2023-09-19T00:14:44;101476.88;;;18.98;84.82
58245;BME280;44550;43.864;25.986;2023-09-19T00:18:55;101469.31;;;19.27;83.49
58245;BME280;44550;43.864;25.986;2023-09-19T00:22:56;101451.31;;;19.47;81.74
58245;BME280;44550;43.864;25.986;2023-09-19T00:27:05;101453.84;;;19.52;80.84
58245;BME280;44550;43.864;25.986;2023-09-19T00:31:10;101464.13;;;19.70;80.55
58245;BME280;44550;43.864;25.986;2023-09-19T00:35:17;101468.31;;;19.35;81.87
58245;BME280;44550;43.864;25.986;2023-09-19T00:39:21;101468.78;;;19.06;83.59
58245;BME280;44550;43.864;25.986;2023-09-19T00:43:24;101470.47;;;19.12;83.14
58245;BME280;44550;43.864;25.986;2023-09-19T00:47:25;101472.16;;;19.16;82.90
58245;BME280;44550;43.864;25.986;2023-09-19T00:51:36;101477.44;;;19.19;82.92
58245;BME280;44550;43.864;25.986;2023-09-19T00:55:46;101454.81;;;18.98;83.19
58245;BME280;44550;43.864;25.986;2023-09-19T00:59:55;101482.16;;;19.01;83.64
58245;BME280;44550;43.864;25.986;2023-09-19T01:04:02;101471.59;;;18.98;83.99
58245;BME280;44550;43.864;25.986;2023-09-19T01:08:09;101469.22;;;18.82;84.55
58245;BME280;44550;43.864;25.986;2023-09-19T01:12:28;101441.50;;;18.41;85.92
58245;BME280;44550;43.864;25.986;2023-09-19T01:16:37;101453.22;;;18.24;89.19
58245;BME280;44550;43.864;25.986;2023-09-19T01:20:48;101437.75;;;17.94;91.46
58245;BME280;44550;43.864;25.986;2023-09-19T01:29:37;101446.19;;;17.46;96.16
58245;BME280;44550;43.864;25.986;2023-09-19T01:33:59;101450.66;;;17.40;95.62
58245;BME280;44550;43.864;25.986;2023-09-19T01:38:03;101447.19;;;17.34;96.01
58245;BME280;44550;43.864;25.986;2023-09-19T01:42:15;101441.03;;;17.34;94.76
58245;BME280;44550;43.864;25.986;2023-09-19T01:46:33;101406.09;;;17.01;95.24
58245;BME280;44550;43.864;25.986;2023-09-19T01:51:02;101435.81;;;17.25;94.01
58245;BME280;44550;43.864;25.986;2023-09-19T01:55:29;101428.50;;;17.51;91.77
58245;BME280;44550;43.864;25.986;2023-09-19T01:59:45;101408.88;;;17.71;89.40
58245;BME280;44550;43.864;25.986;2023-09-19T02:03:56;101429.03;;;17.86;88.45
58245;BME280;44550;43.864;25.986;2023-09-19T02:08:04;101418.75;;;17.56;89.36
58245;BME280;44550;43.864;25.986;2023-09-19T02:12:13;101363.00;;;16.95;91.05
58245;BME280;44550;43.864;25.986;2023-09-19T02:16:17;101440.69;;;17.65;90.03
58245;BME280;44550;43.864;25.986;2023-09-19T02:20:24;101424.09;;;17.50;90.13
58245;BME280;44550;43.864;25.986;2023-09-19T02:24:33;101430.38;;;17.40;90.87
58245;BME280;44550;43.864;25.986;2023-09-19T02:28:37;101427.44;;;17.69;89.67
58245;BME280;44550;43.864;25.986;2023-09-19T02:32:45;101423.19;;;17.56;89.22
58245;BME280;44550;43.864;25.986;2023-09-19T02:36:51;101420.91;;;17.19;91.15
58245;BME280;44550;43.864;25.986;2023-09-19T02:41:03;101371.16;;;16.64;93.06
58245;BME280;44550;43.864;25.986;2023-09-19T02:45:15;101414.22;;;16.80;93.97
58245;BME280;44550;43.864;25.986;2023-09-19T02:54:23;101412.75;;;17.41;91.21
58245;BME280;44550;43.864;25.986;2023-09-19T02:59:03;101432.53;;;17.88;88.70
58245;BME280;44550;43.864;25.986;2023-09-19T03:03:57;101436.97;;;17.86;88.10
58245;BME280;44550;43.864;25.986;2023-09-19T03:09:20;101435.19;;;17.84;87.96
58245;BME280;44550;43.864;25.986;2023-09-19T03:14:40;101390.56;;;17.55;87.88
58245;BME280;44550;43.864;25.986;2023-09-19T03:21:32;101426.50;;;17.75;88.38
58245;BME280;44550;43.864;25.986;2023-09-19T03:24:45;101366.31;;;17.17;89.87
58245;BME280;44550;43.864;25.986;2023-09-19T03:29:44;101430.28;;;17.49;91.08
58245;BME280;44550;43.864;25.986;2023-09-19T03:40:07;101437.47;;;17.35;91.39
58245;BME280;44550;43.864;25.986;2023-09-19T03:45:10;101453.31;;;17.38;93.92
58245;BME280;44550;43.864;25.986;2023-09-19T03:50:14;101446.22;;;17.43;95.29
58245;BME280;44550;43.864;25.986;2023-09-19T03:55:06;101448.25;;;17.13;97.13
58245;BME280;44550;43.864;25.986;2023-09-19T03:59:38;101443.22;;;16.86;98.50
58245;BME280;44550;43.864;25.986;2023-09-19T04:04:01;101441.81;;;16.25;100.00
58245;BME280;44550;43.864;25.986;2023-09-19T04:08:10;101442.91;;;15.66;100.00
58245;BME280;44550;43.864;25.986;2023-09-19T04:12:20;101444.78;;;15.10;100.00
58245;BME280;44550;43.864;25.986;2023-09-19T04:17:08;101433.34;;;14.57;100.00
58245;BME280;44550;43.864;25.986;2023-09-19T04:21:30;101427.97;;;14.22;100.00
58245;BME280;44550;43.864;25.986;2023-09-19T04:26:09;101455.13;;;14.17;100.00
58245;BME280;44550;43.864;25.986;2023-09-19T04:42:29;101453.50;;;15.70;100.00
58245;BME280;44550;43.864;25.986;2023-09-19T04:58:21;101457.91;;;15.19;100.00
58245;BME280;44550;43.864;25.986;2023-09-19T05:03:24;101446.47;;;15.54;100.00
58245;BME280;44550;43.864;25.986;2023-09-19T05:08:19;101446.47;;;15.68;100.00
58245;BME280;44550;43.864;25.986;2023-09-19T05:12:58;101428.91;;;15.47;100.00
58245;BME280;44550;43.864;25.986;2023-09-19T05:17:34;101366.63;;;15.01;100.00
58245;BME280;44550;43.864;25.986;2023-09-19T05:21:54;101422.75;;;15.39;100.00
58245;BME280;44550;43.864;25.986;2023-09-19T05:31:10;101405.22;;;15.33;100.00
58245;BME280;44550;43.864;25.986;2023-09-19T05:36:18;101416.59;;;15.50;100.00
58245;BME280;44550;43.864;25.986;2023-09-19T05:41:35;101417.41;;;15.82;100.00
58245;BME280;44550;43.864;25.986;2023-09-19T05:52:37;101412.59;;;16.57;100.00
58245;BME280;44550;43.864;25.986;2023-09-19T05:57:44;101410.75;;;16.67;100.00
58245;BME280;44550;43.864;25.986;2023-09-19T06:07:19;101384.25;;;16.82;100.00
58245;BME280;44550;43.864;25.986;2023-09-19T06:11:41;101401.31;;;17.40;100.00
58245;BME280;44550;43.864;25.986;2023-09-19T06:20:43;101399.59;;;18.72;92.80
58245;BME280;44550;43.864;25.986;2023-09-19T06:25:05;101384.31;;;18.88;90.76
58245;BME280;44550;43.864;25.986;2023-09-19T06:29:28;101381.69;;;19.34;87.61
58245;BME280;44550;43.864;25.986;2023-09-19T06:33:34;101354.53;;;19.66;86.85
58245;BME280;44550;43.864;25.986;2023-09-19T06:38:01;101386.44;;;20.44;82.10
58245;BME280;44550;43.864;25.986;2023-09-19T06:42:14;101349.53;;;20.69;80.14
58245;BME280;44550;43.864;25.986;2023-09-19T06:46:25;101396.16;;;21.51;76.02
58245;BME280;44550;43.864;25.986;2023-09-19T06:50:55;101373.66;;;21.92;74.97
58245;BME280;44550;43.864;25.986;2023-09-19T06:55:18;101386.00;;;22.52;69.47
58245;BME280;44550;43.864;25.986;2023-09-19T06:59:30;101387.44;;;22.63;69.52
58245;BME280;44550;43.864;25.986;2023-09-19T07:03:46;101368.88;;;23.13;68.42
58245;BME280;44550;43.864;25.986;2023-09-19T07:08:07;101345.56;;;22.66;69.79
58245;BME280;44550;43.864;25.986;2023-09-19T07:12:16;101387.28;;;22.67;72.45
58245;BME280;44550;43.864;25.986;2023-09-19T07:16:41;101384.09;;;22.56;73.00
58245;BME280;44550;43.864;25.986;2023-09-19T07:20:56;101375.34;;;22.52;73.46
58245;BME280;44550;43.864;25.986;2023-09-19T07:25:09;101329.06;;;22.55;71.73
58245;BME280;44550;43.864;25.986;2023-09-19T07:29:25;101340.13;;;22.69;71.08
58245;BME280;44550;43.864;25.986;2023-09-19T07:43:42;101352.44;;;23.25;67.96
58245;BME280;44550;43.864;25.986;2023-09-19T07:47:45;101339.66;;;23.57;67.63
58245;BME280;44550;43.864;25.986;2023-09-19T07:51:47;101313.75;;;24.06;57.50
58245;BME280;44550;43.864;25.986;2023-09-19T07:56:17;101327.31;;;24.01;56.41
58245;BME280;44550;43.864;25.986;2023-09-19T08:00:26;101314.69;;;24.27;56.69
58245;BME280;44550;43.864;25.986;2023-09-19T08:09:16;101306.03;;;24.64;50.66
58245;BME280;44550;43.864;25.986;2023-09-19T08:13:33;101299.16;;;24.79;47.02
58245;BME280;44550;43.864;25.986;2023-09-19T08:17:38;101300.25;;;24.53;46.64
58245;BME280;44550;43.864;25.986;2023-09-19T08:21:39;101264.50;;;24.33;45.64
58245;BME280;44550;43.864;25.986;2023-09-19T08:25:44;101289.91;;;24.86;44.29
58245;BME280;44550;43.864;25.986;2023-09-19T08:29:46;101269.38;;;24.87;44.40
58245;BME280;44550;43.864;25.986;2023-09-19T08:33:52;101278.72;;;25.57;41.93
58245;BME280;44550;43.864;25.986;2023-09-19T08:37:55;101244.34;;;25.66;40.53
58245;BME280;44550;43.864;25.986;2023-09-19T08:42:03;101271.50;;;26.14;39.72
58245;BME280;44550;43.864;25.986;2023-09-19T08:46:10;101265.84;;;26.20;39.07
58245;BME280;44550;43.864;25.986;2023-09-19T08:55:16;101273.19;;;25.97;36.58
58245;BME280;44550;43.864;25.986;2023-09-19T08:59:23;101278.13;;;26.24;34.45
58245;BME280;44550;43.864;25.986;2023-09-19T09:03:26;101233.31;;;25.91;34.25
58245;BME280;44550;43.864;25.986;2023-09-19T09:07:37;101260.19;;;26.78;33.17
58245;BME280;44550;43.864;25.986;2023-09-19T09:11:43;101251.94;;;27.16;32.37
58245;BME280;44550;43.864;25.986;2023-09-19T09:15:55;101248.28;;;27.17;32.13
58245;BME280;44550;43.864;25.986;2023-09-19T09:20:46;101241.03;;;27.19;31.42
58245;BME280;44550;43.864;25.986;2023-09-19T09:24:53;101239.69;;;26.42;32.50
58245;BME280;44550;43.864;25.986;2023-09-19T09:28:58;101231.84;;;26.20;32.85
58245;BME280;44550;43.864;25.986;2023-09-19T09:33:08;101220.03;;;26.24;32.82
58245;BME280;44550;43.864;25.986;2023-09-19T09:37:14;101216.16;;;26.30;33.26
58245;BME280;44550;43.864;25.986;2023-09-19T09:41:21;101217.44;;;26.58;33.43
58245;BME280;44550;43.864;25.986;2023-09-19T09:45:41;101206.22;;;26.67;31.96
58245;BME280;44550;43.864;25.986;2023-09-19T09:50:07;101225.28;;;26.96;32.70
58245;BME280;44550;43.864;25.986;2023-09-19T09:54:27;101230.66;;;27.29;31.73
58245;BME280;44550;43.864;25.986;2023-09-19T10:04:30;101229.19;;;27.06;31.56
58245;BME280;44550;43.864;25.986;2023-09-19T10:09:35;101212.88;;;27.26;30.57
58245;BME280;44550;43.864;25.986;2023-09-19T10:14:42;101200.69;;;27.52;31.19
58245;BME280;44550;43.864;25.986;2023-09-19T10:19:36;101208.72;;;27.68;31.21
58245;BME280;44550;43.864;25.986;2023-09-19T10:24:08;101155.19;;;27.49;31.71
58245;BME280;44550;43.864;25.986;2023-09-19T10:28:29;101210.53;;;27.99;31.45
58245;BME280;44550;43.864;25.986;2023-09-19T10:32:43;101208.00;;;28.12;32.27
58245;BME280;44550;43.864;25.986;2023-09-19T10:37:02;101191.84;;;27.82;30.82
58245;BME280;44550;43.864;25.986;2023-09-19T10:41:25;101209.34;;;27.89;33.35
58245;BME280;44550;43.864;25.986;2023-09-19T10:45:46;101185.72;;;27.94;32.27
58245;BME280;44550;43.864;25.986;2023-09-19T10:50:06;101190.69;;;28.02;31.56
58245;BME280;44550;43.864;25.986;2023-09-19T10:54:28;101189.94;;;28.44;30.63
58245;BME280;44550;43.864;25.986;2023-09-19T10:59:15;101204.13;;;28.32;30.61
58245;BME280;44550;43.864;25.986;2023-09-19T11:03:40;101177.09;;;28.49;29.42
58245;BME280;44550;43.864;25.986;2023-09-19T11:08:09;101153.84;;;28.18;30.63
58245;BME280;44550;43.864;25.986;2023-09-19T11:12:53;101192.50;;;28.31;31.56
58245;BME280;44550;43.864;25.986;2023-09-19T11:17:46;101189.56;;;28.50;31.61
58245;BME280;44550;43.864;25.986;2023-09-19T11:23:23;101167.47;;;28.45;32.40
58245;BME280;44550;43.864;25.986;2023-09-19T11:27:18;101179.22;;;28.59;31.07
58245;BME280;44550;43.864;25.986;2023-09-19T11:31:57;101175.34;;;28.77;31.13
58245;BME280;44550;43.864;25.986;2023-09-19T11:36:35;101177.66;;;28.83;30.89
58245;BME280;44550;43.864;25.986;2023-09-19T11:40:44;101157.00;;;28.69;31.10
58245;BME280;44550;43.864;25.986;2023-09-19T11:44:57;101169.41;;;29.00;30.57
58245;BME280;44550;43.864;25.986;2023-09-19T11:49:08;101156.53;;;28.91;30.61
58245;BME280;44550;43.864;25.986;2023-09-19T11:53:12;101164.94;;;29.01;30.31
58245;BME280;44550;43.864;25.986;2023-09-19T11:57:24;101145.25;;;28.99;30.92
58245;BME280;44550;43.864;25.986;2023-09-19T12:02:09;101142.84;;;29.23;30.58
58245;BME280;44550;43.864;25.986;2023-09-19T12:06:29;101147.94;;;29.27;28.59
58245;BME280;44550;43.864;25.986;2023-09-19T12:10:45;101149.88;;;29.25;28.92
58245;BME280;44550;43.864;25.986;2023-09-19T12:14:51;101145.25;;;28.99;28.64
58245;BME280;44550;43.864;25.986;2023-09-19T12:18:54;101143.25;;;28.74;28.93
58245;BME280;44550;43.864;25.986;2023-09-19T12:23:09;101115.47;;;28.73;29.43
58245;BME280;44550;43.864;25.986;2023-09-19T12:27:17;101107.03;;;28.65;29.91
58245;BME280;44550;43.864;25.986;2023-09-19T12:31:25;101129.31;;;28.96;28.92
58245;BME280;44550;43.864;25.986;2023-09-19T12:35:30;101127.66;;;29.22;28.56
58245;BME280;44550;43.864;25.986;2023-09-19T12:39:43;101128.25;;;29.54;28.38
58245;BME280;44550;43.864;25.986;2023-09-19T12:43:56;101100.06;;;29.45;28.55
58245;BME280;44550;43.864;25.986;2023-09-19T12:48:20;101123.44;;;29.45;27.45
58245;BME280;44550;43.864;25.986;2023-09-19T12:52:35;101092.72;;;29.62;27.59
58245;BME280;44550;43.864;25.986;2023-09-19T12:56:47;101122.75;;;29.95;27.53
58245;BME280;44550;43.864;25.986;2023-09-19T13:01:14;101116.94;;;30.02;26.70
58245;BME280;44550;43.864;25.986;2023-09-19T13:05:51;101055.78;;;30.02;26.48
58245;BME280;44550;43.864;25.986;2023-09-19T13:10:33;101102.34;;;30.44;26.72
58245;BME280;44550;43.864;25.986;2023-09-19T13:15:26;101098.72;;;30.05;26.91
58245;BME280;44550;43.864;25.986;2023-09-19T13:20:20;101100.19;;;29.71;26.01
58245;BME280;44550;43.864;25.986;2023-09-19T13:25:16;101078.41;;;29.74;26.18
58245;BME280;44550;43.864;25.986;2023-09-19T13:29:53;101087.47;;;29.86;26.27
58245;BME280;44550;43.864;25.986;2023-09-19T13:52:55;101076.72;;;30.62;26.09
58245;BME280;44550;43.864;25.986;2023-09-19T14:39:34;101046.94;;;29.87;26.46
58245;BME280;44550;43.864;25.986;2023-09-19T14:44:23;101053.16;;;29.62;26.96
58245;BME280;44550;43.864;25.986;2023-09-19T14:49:44;101046.91;;;29.35;27.98
58245;BME280;44550;43.864;25.986;2023-09-19T14:54:46;101029.63;;;28.97;28.84
58245;BME280;44550;43.864;25.986;2023-09-19T14:59:44;101057.53;;;28.82;29.90
58245;BME280;44550;43.864;25.986;2023-09-19T15:04:23;101055.88;;;28.79;30.27
58245;BME280;44550;43.864;25.986;2023-09-19T15:09:20;101048.34;;;28.99;31.36
58245;BME280;44550;43.864;25.986;2023-09-19T15:14:17;101045.81;;;29.24;32.16
58245;BME280;44550;43.864;25.986;2023-09-19T15:18:21;101003.06;;;29.06;32.34
58245;BME280;44550;43.864;25.986;2023-09-19T15:22:39;101033.53;;;29.33;32.54
58245;BME280;44550;43.864;25.986;2023-09-19T15:27:30;101045.59;;;29.40;33.20
58245;BME280;44550;43.864;25.986;2023-09-19T15:31:50;101042.50;;;29.46;33.89
58245;BME280;44550;43.864;25.986;2023-09-19T15:36:01;101018.66;;;29.40;33.72
58245;BME280;44550;43.864;25.986;2023-09-19T15:40:08;101030.22;;;29.42;33.99
58245;BME280;44550;43.864;25.986;2023-09-19T15:44:19;101038.53;;;29.52;34.32
58245;BME280;44550;43.864;25.986;2023-09-19T15:48:24;101043.28;;;29.48;34.74
58245;BME280;44550;43.864;25.986;2023-09-19T15:52:25;101040.66;;;29.34;35.35
58245;BME280;44550;43.864;25.986;2023-09-19T15:56:27;100946.44;;;28.66;36.46
58245;BME280;44550;43.864;25.986;2023-09-19T16:00:28;101030.97;;;29.05;35.91
58245;BME280;44550;43.864;25.986;2023-09-19T16:04:32;101012.47;;;28.57;36.34
58245;BME280;44550;43.864;25.986;2023-09-19T16:08:49;101032.38;;;28.69;37.74
58245;BME280;44550;43.864;25.986;2023-09-19T16:13:00;101035.72;;;28.72;38.22
58245;BME280;44550;43.864;25.986;2023-09-19T16:17:12;101049.94;;;28.74;38.86
58245;BME280;44550;43.864;25.986;2023-09-19T16:21:19;101051.00;;;28.72;39.50
58245;BME280;44550;43.864;25.986;2023-09-19T16:25:28;100993.16;;;28.36;38.87
58245;BME280;44550;43.864;25.986;2023-09-19T16:29:38;101034.56;;;28.19;40.58
58245;BME280;44550;43.864;25.986;2023-09-19T16:33:47;101065.53;;;28.41;44.75
58245;BME280;44550;43.864;25.986;2023-09-19T16:38:07;101061.03;;;28.41;46.32
58245;BME280;44550;43.864;25.986;2023-09-19T16:42:47;101067.41;;;28.24;50.59
58245;BME280;44550;43.864;25.986;2023-09-19T16:47:05;101063.59;;;27.54;56.53
58245;BME280;44550;43.864;25.986;2023-09-19T16:51:14;101063.22;;;27.14;61.20
58245;BME280;44550;43.864;25.986;2023-09-19T16:55:23;101067.16;;;26.75;64.78
58245;BME280;44550;43.864;25.986;2023-09-19T16:59:41;101043.19;;;26.06;64.88
58245;BME280;44550;43.864;25.986;2023-09-19T17:04:01;101052.41;;;25.48;69.61
58245;BME280;44550;43.864;25.986;2023-09-19T17:08:09;101074.44;;;25.36;72.57
58245;BME280;44550;43.864;25.986;2023-09-19T17:12:13;101075.28;;;25.36;73.02
58245;BME280;44550;43.864;25.986;2023-09-19T17:16:16;101072.28;;;25.61;75.19
58245;BME280;44550;43.864;25.986;2023-09-19T17:20:19;101070.59;;;25.41;75.41
58245;BME280;44550;43.864;25.986;2023-09-19T17:24:20;101065.81;;;25.12;78.75
58245;BME280;44550;43.864;25.986;2023-09-19T17:28:23;101080.50;;;24.84;78.23
58245;BME280;44550;43.864;25.986;2023-09-19T17:32:24;101052.59;;;24.31;75.71
58245;BME280;44550;43.864;25.986;2023-09-19T17:36:27;101067.81;;;24.69;77.47
58245;BME280;44550;43.864;25.986;2023-09-19T17:40:30;101087.13;;;25.13;76.28
58245;BME280;44550;43.864;25.986;2023-09-19T17:44:33;101090.19;;;25.42;75.84
58245;BME280;44550;43.864;25.986;2023-09-19T17:48:36;101067.13;;;25.39;76.88
58245;BME280;44550;43.864;25.986;2023-09-19T17:52:41;101038.75;;;24.80;75.11
58245;BME280;44550;43.864;25.986;2023-09-19T17:56:42;101084.88;;;24.66;76.34
58245;BME280;44550;43.864;25.986;2023-09-19T18:00:45;101063.19;;;24.72;76.03
58245;BME280;44550;43.864;25.986;2023-09-19T18:04:46;101097.03;;;25.11;76.55
58245;BME280;44550;43.864;25.986;2023-09-19T18:08:47;101084.25;;;25.18;73.00
58245;BME280;44550;43.864;25.986;2023-09-19T18:12:48;101106.50;;;25.37;72.17
58245;BME280;44550;43.864;25.986;2023-09-19T18:16:51;101102.88;;;24.81;73.00
58245;BME280;44550;43.864;25.986;2023-09-19T18:21:00;101112.25;;;24.11;76.93
58245;BME280;44550;43.864;25.986;2023-09-19T18:25:05;101104.81;;;23.77;79.87
58245;BME280;44550;43.864;25.986;2023-09-19T18:29:06;101092.06;;;23.84;79.46
58245;BME280;44550;43.864;25.986;2023-09-19T18:33:10;101093.59;;;23.69;79.66
58245;BME280;44550;43.864;25.986;2023-09-19T18:37:12;101083.06;;;23.86;78.46
58245;BME280;44550;43.864;25.986;2023-09-19T18:41:14;101058.28;;;23.83;72.56
58245;BME280;44550;43.864;25.986;2023-09-19T18:45:20;101087.94;;;24.18;73.70
58245;BME280;44550;43.864;25.986;2023-09-19T18:49:41;101082.56;;;24.38;73.16
58245;BME280;44550;43.864;25.986;2023-09-19T18:53:42;101050.91;;;24.29;73.38
58245;BME280;44550;43.864;25.986;2023-09-19T18:58:00;101065.69;;;24.17;72.71
58245;BME280;44550;43.864;25.986;2023-09-19T19:02:01;101115.19;;;24.26;73.43
58245;BME280;44550;43.864;25.986;2023-09-19T19:06:10;101093.88;;;24.24;74.05
58245;BME280;44550;43.864;25.986;2023-09-19T19:10:14;101124.88;;;24.49;73.74
58245;BME280;44550;43.864;25.986;2023-09-19T19:14:17;101122.53;;;24.61;72.54
58245;BME280;44550;43.864;25.986;2023-09-19T19:18:18;101124.38;;;24.41;74.46
58245;BME280;44550;43.864;25.986;2023-09-19T19:22:21;101122.56;;;24.41;74.82
58245;BME280;44550;43.864;25.986;2023-09-19T19:26:22;101063.66;;;23.61;72.80
58245;BME280;44550;43.864;25.986;2023-09-19T19:30:25;101117.13;;;23.15;77.34
58245;BME280;44550;43.864;25.986;2023-09-19T19:34:25;101111.78;;;22.92;78.38
58245;BME280;44550;43.864;25.986;2023-09-19T19:38:28;101109.41;;;23.30;76.86
58245;BME280;44550;43.864;25.986;2023-09-19T19:42:29;101092.56;;;23.51;75.86
58245;BME280;44550;43.864;25.986;2023-09-19T19:46:30;101119.56;;;23.64;75.57
58245;BME280;44550;43.864;25.986;2023-09-19T19:50:38;101129.41;;;23.85;73.01
58245;BME280;44550;43.864;25.986;2023-09-19T19:54:44;101136.91;;;23.98;71.10
58245;BME280;44550;43.864;25.986;2023-09-19T19:58:48;101108.66;;;23.92;62.79
58245;BME280;44550;43.864;25.986;2023-09-19T20:02:48;101120.28;;;24.11;60.54
58245;BME280;44550;43.864;25.986;2023-09-19T20:06:49;101139.97;;;24.09;60.58
58245;BME280;44550;43.864;25.986;2023-09-19T20:10:52;101127.84;;;23.80;63.15
58245;BME280;44550;43.864;25.986;2023-09-19T20:14:53;101138.06;;;23.48;65.44
58245;BME280;44550;43.864;25.986;2023-09-19T20:18:58;101147.47;;;23.35;67.21
58245;BME280;44550;43.864;25.986;2023-09-19T20:22:59;101150.81;;;23.40;67.59
58245;BME280;44550;43.864;25.986;2023-09-19T20:27:04;101148.09;;;23.41;65.60
58245;BME280;44550;43.864;25.986;2023-09-19T20:31:05;101154.38;;;23.17;67.28
58245;BME280;44550;43.864;25.986;2023-09-19T20:35:09;101151.69;;;23.18;66.70
58245;BME280;44550;43.864;25.986;2023-09-19T20:39:11;101125.13;;;23.15;66.33
58245;BME280;44550;43.864;25.986;2023-09-19T20:43:17;101146.66;;;23.33;67.11
58245;BME280;44550;43.864;25.986;2023-09-19T20:47:18;101140.00;;;23.21;66.69
58245;BME280;44550;43.864;25.986;2023-09-19T20:51:19;101141.28;;;22.87;68.30
58245;BME280;44550;43.864;25.986;2023-09-19T20:55:23;101148.59;;;22.82;69.15
58245;BME280;44550;43.864;25.986;2023-09-19T20:59:26;101145.63;;;22.90;69.66
58245;BME280;44550;43.864;25.986;2023-09-19T21:03:28;101124.63;;;22.81;69.95
58245;BME280;44550;43.864;25.986;2023-09-19T21:07:28;101151.59;;;23.20;68.31
58245;BME280;44550;43.864;25.986;2023-09-19T21:11:30;101159.31;;;23.04;68.78
58245;BME280;44550;43.864;25.986;2023-09-19T21:15:33;101169.94;;;23.06;69.58
58245;BME280;44550;43.864;25.986;2023-09-19T21:19:43;101152.41;;;21.98;71.86
58245;BME280;44550;43.864;25.986;2023-09-19T21:23:45;101193.63;;;21.30;76.21
58245;BME280;44550;43.864;25.986;2023-09-19T21:27:45;101181.56;;;21.19;76.10
58245;BME280;44550;43.864;25.986;2023-09-19T21:31:48;101190.22;;;21.25;76.42
58245;BME280;44550;43.864;25.986;2023-09-19T21:35:49;101120.63;;;21.41;74.64
58245;BME280;44550;43.864;25.986;2023-09-19T21:39:51;101165.59;;;21.76;74.36
58245;BME280;44550;43.864;25.986;2023-09-19T21:43:53;101193.03;;;22.05;74.09
58245;BME280;44550;43.864;25.986;2023-09-19T21:47:57;101188.25;;;22.15;72.88
58245;BME280;44550;43.864;25.986;2023-09-19T21:51:59;101210.22;;;22.23;72.73
58245;BME280;44550;43.864;25.986;2023-09-19T21:56:04;101207.78;;;22.17;72.75
58245;BME280;44550;43.864;25.986;2023-09-19T22:00:07;101201.41;;;22.21;72.75
58245;BME280;44550;43.864;25.986;2023-09-19T22:04:24;101186.72;;;21.81;74.03
58245;BME280;44550;43.864;25.986;2023-09-19T22:08:24;101210.72;;;21.22;77.24
58245;BME280;44550;43.864;25.986;2023-09-19T22:12:26;101212.63;;;21.48;76.83
58245;BME280;44550;43.864;25.986;2023-09-19T22:16:32;101207.63;;;21.67;76.09
58245;BME280;44550;43.864;25.986;2023-09-19T22:20:35;101217.53;;;21.62;76.32
58245;BME280;44550;43.864;25.986;2023-09-19T22:24:44;101213.53;;;21.75;75.66
58245;BME280;44550;43.864;25.986;2023-09-19T22:28:45;101214.56;;;21.71;75.87
58245;BME280;44550;43.864;25.986;2023-09-19T22:32:48;101209.50;;;21.33;78.16
58245;BME280;44550;43.864;25.986;2023-09-19T22:36:56;101204.69;;;20.85;80.23
58245;BME280;44550;43.864;25.986;2023-09-19T22:40:57;101206.84;;;20.38;83.08
58245;BME280;44550;43.864;25.986;2023-09-19T22:45:02;101199.91;;;19.60;87.15
58245;BME280;44550;43.864;25.986;2023-09-19T22:49:07;101161.88;;;19.61;85.94
58245;BME280;44550;43.864;25.986;2023-09-19T22:53:16;101208.16;;;20.22;84.48
58245;BME280;44550;43.864;25.986;2023-09-19T22:57:22;101192.56;;;19.73;86.01
58245;BME280;44550;43.864;25.986;2023-09-19T23:01:23;101218.88;;;19.82;86.16
58245;BME280;44550;43.864;25.986;2023-09-19T23:05:35;101211.72;;;19.85;86.52
58245;BME280;44550;43.864;25.986;2023-09-19T23:09:40;101207.97;;;19.55;87.28
58245;BME280;44550;43.864;25.986;2023-09-19T23:13:44;101201.94;;;19.07;90.19
58245;BME280;44550;43.864;25.986;2023-09-19T23:17:44;101201.00;;;19.11;89.77
58245;BME280;44550;43.864;25.986;2023-09-19T23:21:46;101209.22;;;19.39;89.00
58245;BME280;44550;43.864;25.986;2023-09-19T23:25:53;101198.91;;;19.67;87.73
58245;BME280;44550;43.864;25.986;2023-09-19T23:29:54;101116.94;;;19.16;87.44
58245;BME280;44550;43.864;25.986;2023-09-19T23:33:55;101201.50;;;19.68;87.34
58245;BME280;44550;43.864;25.986;2023-09-19T23:37:55;101184.75;;;20.02;84.70
58245;BME280;44550;43.864;25.986;2023-09-19T23:41:59;101223.75;;;20.70;81.82
58245;BME280;44550;43.864;25.986;2023-09-19T23:46:00;101182.13;;;20.36;86.94
58245;BME280;44550;43.864;25.986;2023-09-19T23:50:04;101216.81;;;20.29;85.92
58245;BME280;44550;43.864;25.986;2023-09-19T23:54:08;101234.22;;;19.69;88.27
58245;BME280;44550;43.864;25.986;2023-09-19T23:58:15;101235.72;;;19.81;87.51
